Time;durP1;ratioP1;P1;durP2;ratioP2;P2;SDS_P1;SDS_P2;PMS_P1;PMS_P2;Temp;Humidity;BMP_temperature;BMP_pressure;BME280_temperature;BME280_humidity;BME280_pressure;Samples;Min_cycle;Max_cycle;Signal;HPM_P1;HPM_P2
2023/02/27 00:01:28;;;;;;;1.38;0.50;;;0.60;99.90;;;;;;4992534;28;20101;-77
2023/02/27 00:03:54;;;;;;;0.50;0.50;;;0.60;99.90;;;;;;4993792;28;20031;-77
2023/02/27 00:06:20;;;;;;;0.32;0.32;;;0.60;99.90;;;;;;4984150;28;20450;-78
2023/02/27 00:08:45;;;;;;;1.25;0.45;;;0.60;99.90;;;;;;4984137;28;20026;-78
2023/02/27 00:11:11;;;;;;;0.55;0.32;;;0.60;99.90;;;;;;4992410;28;20045;-77
2023/02/27 00:13:37;;;;;;;2.42;1.38;;;0.60;99.90;;;;;;4984579;28;20383;-77
2023/02/27 00:16:03;;;;;;;0.40;0.40;;;0.60;99.90;;;;;;4985697;28;20490;-77
2023/02/27 00:18:29;;;;;;;0.47;0.40;;;0.50;99.90;;;;;;4993387;28;20030;-77
2023/02/27 00:20:55;;;;;;;0.20;0.20;;;0.50;99.90;;;;;;4986845;28;20454;-77
2023/02/27 00:23:20;;;;;;;0.88;0.22;;;0.40;99.90;;;;;;4983338;28;20023;-77
2023/02/27 00:25:46;;;;;;;0.22;0.20;;;0.40;99.90;;;;;;4992365;28;20501;-78
2023/02/27 00:28:12;;;;;;;2.78;0.68;;;0.40;99.90;;;;;;4993115;28;20371;-78
2023/02/27 00:30:38;;;;;;;1.15;0.47;;;0.40;99.90;;;;;;4992710;28;20034;-77
2023/02/27 00:33:04;;;;;;;0.77;0.77;;;0.40;99.90;;;;;;4993559;28;20042;-77
2023/02/27 00:35:30;;;;;;;1.10;0.73;;;0.40;99.90;;;;;;4991952;28;20080;-77
2023/02/27 00:37:55;;;;;;;1.90;0.77;;;0.40;99.90;;;;;;4993102;28;20041;-78
2023/02/27 00:40:24;;;;;;;4.13;0.40;;;0.30;99.90;;;;;;4974132;28;20117;-77
2023/02/27 00:42:50;;;;;;;0.30;0.17;;;0.20;99.90;;;;;;4983877;28;20030;-77
2023/02/27 00:45:17;;;;;;;0.40;0.40;;;0.20;99.90;;;;;;4990243;28;20110;-77
2023/02/27 00:47:43;;;;;;;0.30;0.30;;;0.20;99.90;;;;;;4995243;28;20158;-77
2023/02/27 00:50:10;;;;;;;0.20;0.20;;;0.20;99.90;;;;;;4991576;28;20137;-77
2023/02/27 00:52:36;;;;;;;0.47;0.38;;;0.10;99.90;;;;;;4992930;28;20152;-77
2023/02/27 00:55:01;;;;;;;0.40;0.38;;;0.20;99.90;;;;;;4991503;28;20492;-77
2023/02/27 00:57:27;;;;;;;3.25;0.50;;;0.20;99.90;;;;;;4992965;28;20026;-77
2023/02/27 00:59:53;;;;;;;1.67;0.40;;;0.10;99.90;;;;;;4988104;28;20027;-77
2023/02/27 01:02:19;;;;;;;0.10;0.10;;;0.20;99.90;;;;;;4991580;28;20121;-77
2023/02/27 01:04:44;;;;;;;0.30;0.28;;;0.20;99.90;;;;;;4992010;28;20126;-77
2023/02/27 01:07:10;;;;;;;0.10;0.10;;;0.20;99.90;;;;;;4975282;28;20041;-77
2023/02/27 01:09:36;;;;;;;0.10;0.10;;;0.20;99.90;;;;;;4992033;28;20029;-77
2023/02/27 01:12:02;;;;;;;0.65;0.60;;;0.00;99.90;;;;;;4982806;28;20057;-77
2023/02/27 01:14:28;;;;;;;0.93;0.40;;;0.00;99.90;;;;;;4989737;28;20088;-77
2023/02/27 01:16:54;;;;;;;0.20;0.13;;;-0.10;99.90;;;;;;4982811;28;20038;-77
2023/02/27 01:19:20;;;;;;;0.10;0.10;;;0.00;99.90;;;;;;4990959;28;20493;-77
2023/02/27 01:21:46;;;;;;;0.10;0.10;;;-0.10;99.90;;;;;;4982779;28;20553;-77
2023/02/27 01:24:12;;;;;;;2.25;0.70;;;0.00;99.90;;;;;;4991113;28;20140;-77
2023/02/27 01:26:37;;;;;;;1.25;0.43;;;-0.10;99.90;;;;;;4991606;28;20022;-77
2023/02/27 01:29:03;;;;;;;0.40;0.30;;;-0.10;99.90;;;;;;4990885;28;20022;-77
2023/02/27 01:31:29;;;;;;;2.33;0.73;;;-0.20;99.90;;;;;;4991827;28;20073;-77
2023/02/27 01:33:55;;;;;;;2.22;0.50;;;-0.20;99.90;;;;;;4990989;28;20041;-77
2023/02/27 01:36:20;;;;;;;0.32;0.30;;;-0.20;99.90;;;;;;4991419;28;20482;-77
2023/02/27 01:38:46;;;;;;;0.25;0.25;;;-0.20;99.90;;;;;;4991258;28;20034;-77
2023/02/27 01:41:12;;;;;;;3.50;0.55;;;-0.30;99.90;;;;;;4991204;28;20038;-77
2023/02/27 01:44:05;;;;;;;0.22;0.22;;;-0.40;99.90;;;;;;4991923;28;20358;-76
2023/02/27 01:46:33;;;;;;;0.32;0.30;;;-0.50;99.90;;;;;;4982457;28;20030;-77
2023/02/27 01:49:09;;;;;;;0.20;0.20;;;-0.60;99.90;;;;;;4989366;28;20030;-77
2023/02/27 01:51:41;;;;;;;0.25;0.25;;;-0.60;99.90;;;;;;4991495;28;20386;-78
2023/02/27 01:54:10;;;;;;;0.20;0.20;;;-0.60;99.90;;;;;;4973147;28;20069;-78
2023/02/27 01:56:36;;;;;;;0.73;0.52;;;-0.70;99.90;;;;;;4981650;28;20095;-78
2023/02/27 01:59:06;;;;;;;2.60;0.57;;;-0.70;99.90;;;;;;4990284;28;20030;-76
2023/02/27 02:01:33;;;;;;;0.20;0.20;;;-0.80;99.90;;;;;;4982470;28;20037;-77
2023/02/27 02:04:21;;;;;;;0.47;0.35;;;-0.80;99.90;;;;;;4987463;28;20497;-77
2023/02/27 02:06:54;;;;;;;1.42;0.70;;;-0.90;99.90;;;;;;4967696;28;20062;-77
2023/02/27 02:09:21;;;;;;;4.53;0.80;;;-0.80;99.90;;;;;;4972684;28;20088;-77
2023/02/27 02:11:47;;;;;;;1.58;0.47;;;-0.90;99.90;;;;;;4991563;28;20467;-77
2023/02/27 02:14:13;;;;;;;2.22;0.70;;;-1.00;99.90;;;;;;4990070;28;20110;-77
2023/02/27 02:17:04;;;;;;;0.30;0.10;;;-0.80;99.90;;;;;;4981828;28;20121;-77
2023/02/27 02:20:16;;;;;;;1.67;0.90;;;-0.90;99.90;;;;;;4990248;28;20038;-77
2023/02/27 02:23:00;;;;;;;0.30;0.30;;;-0.90;99.90;;;;;;4986664;28;20479;-77
2023/02/27 02:25:51;;;;;;;1.05;0.82;;;-1.00;99.90;;;;;;4990318;28;20034;-77
2023/02/27 02:28:40;;;;;;;0.20;0.20;;;-1.00;99.90;;;;;;4991113;28;20495;-77
2023/02/27 02:31:37;;;;;;;0.25;0.25;;;-1.00;99.90;;;;;;4990382;28;20050;-77
2023/02/27 02:34:54;;;;;;;0.65;0.52;;;-1.00;99.90;;;;;;4990256;28;20030;-77
2023/02/27 02:38:04;;;;;;;1.60;0.43;;;-1.10;99.90;;;;;;4983589;28;20033;-77
2023/02/27 02:40:41;;;;;;;2.72;0.93;;;-1.10;99.90;;;;;;4970124;28;20042;-77
2023/02/27 02:43:22;;;;;;;0.65;0.63;;;-1.10;99.90;;;;;;4988657;28;20031;-77
2023/02/27 02:46:09;;;;;;;0.98;0.73;;;-1.10;99.90;;;;;;4983431;28;20114;-77
2023/02/27 02:49:02;;;;;;;0.30;0.30;;;-1.00;99.90;;;;;;4993914;28;20042;-77
2023/02/27 02:51:59;;;;;;;3.03;0.93;;;-1.10;99.90;;;;;;4995734;28;20069;-77
2023/02/27 02:54:44;;;;;;;0.40;0.40;;;-1.10;99.90;;;;;;4985748;28;20511;-77
2023/02/27 02:57:24;;;;;;;2.25;0.93;;;-1.00;99.90;;;;;;4985713;28;20034;-77
2023/02/27 03:00:15;;;;;;;2.75;0.77;;;-1.10;99.90;;;;;;4991907;28;20065;-77
2023/02/27 03:02:56;;;;;;;0.55;0.55;;;-1.10;99.90;;;;;;4969882;28;20106;-77
2023/02/27 03:05:34;;;;;;;1.50;0.52;;;-1.10;99.90;;;;;;4979257;28;20034;-77
2023/02/27 03:08:11;;;;;;;1.17;0.57;;;-1.20;99.90;;;;;;4991660;28;20066;-77
2023/02/27 03:10:58;;;;;;;0.85;0.65;;;-1.20;99.90;;;;;;4988852;28;20033;-77
2023/02/27 03:13:51;;;;;;;1.27;0.82;;;-1.20;99.90;;;;;;4958389;28;20038;-77
2023/02/27 03:16:44;;;;;;;1.13;0.80;;;-1.20;99.90;;;;;;4993527;28;20026;-77
2023/02/27 03:19:32;;;;;;;1.40;0.60;;;-1.20;99.90;;;;;;4993075;28;20118;-77
2023/02/27 03:22:09;;;;;;;2.90;0.85;;;-1.30;99.90;;;;;;4985021;28;20065;-76
2023/02/27 03:24:45;;;;;;;0.52;0.52;;;-1.20;99.90;;;;;;4993578;28;20161;-77
2023/02/27 03:27:12;;;;;;;0.63;0.55;;;-1.20;99.90;;;;;;4984979;28;20034;-78
2023/02/27 03:30:12;;;;;;;3.63;1.50;;;-1.20;99.90;;;;;;4990897;28;20490;-77
2023/02/27 03:32:52;;;;;;;1.25;1.08;;;-1.20;99.90;;;;;;4958198;28;20486;-77
2023/02/27 03:35:18;;;;;;;0.30;0.30;;;-1.20;99.90;;;;;;4986753;28;20529;-77
2023/02/27 03:38:19;;;;;;;0.55;0.50;;;-1.10;99.90;;;;;;4988175;28;20026;-77
2023/02/27 03:41:48;;;;;;;4.55;0.85;;;-1.10;99.90;;;;;;4971607;28;20026;-77
2023/02/27 03:44:49;;;;;;;0.35;0.35;;;-1.20;99.90;;;;;;4899739;29;20036;-77
2023/02/27 03:47:14;;;;;;;1.45;0.65;;;-1.10;99.90;;;;;;4987079;28;20111;-77
2023/02/27 03:49:40;;;;;;;3.95;1.33;;;-1.20;99.90;;;;;;4978953;28;20047;-77
2023/02/27 03:52:06;;;;;;;1.15;0.77;;;-1.20;99.90;;;;;;4984437;28;20033;-77
2023/02/27 03:54:38;;;;;;;6.70;0.63;;;-1.20;99.90;;;;;;4990753;28;20117;-77
2023/02/27 03:57:08;;;;;;;1.85;0.90;;;-1.20;99.90;;;;;;4984437;28;20022;-77
2023/02/27 03:59:36;;;;;;;1.50;0.43;;;-1.20;99.90;;;;;;4992221;28;20037;-78
2023/02/27 04:02:03;;;;;;;1.02;0.70;;;-1.20;99.90;;;;;;4984447;28;20030;-77
2023/02/27 04:04:34;;;;;;;0.65;0.60;;;-1.20;99.90;;;;;;4990274;28;20414;-78
2023/02/27 04:07:37;;;;;;;0.50;0.30;;;-1.20;99.90;;;;;;4984395;28;20045;-77
2023/02/27 04:10:22;;;;;;;2.08;1.15;;;-1.10;99.90;;;;;;4992143;28;20037;-77
2023/02/27 04:13:35;;;;;;;7.78;0.60;;;-1.20;99.90;;;;;;4988203;28;20034;-77
2023/02/27 04:16:49;;;;;;;0.70;0.70;;;-1.20;99.90;;;;;;4985567;28;20030;-77
2023/02/27 04:19:20;;;;;;;4.13;1.23;;;-1.20;99.90;;;;;;4976587;28;20026;-77
2023/02/27 04:21:46;;;;;;;1.75;1.10;;;-1.20;99.90;;;;;;4991074;28;20343;-77
2023/02/27 04:24:36;;;;;;;2.20;0.32;;;-1.20;99.90;;;;;;4992108;28;20045;-77
2023/02/27 04:27:16;;;;;;;1.33;1.23;;;-1.20;99.90;;;;;;4981535;28;20038;-77
2023/02/27 04:29:59;;;;;;;0.50;0.50;;;-1.20;99.90;;;;;;4992856;28;20035;-77
2023/02/27 04:32:43;;;;;;;3.40;1.63;;;-1.20;99.90;;;;;;4973728;28;20039;-77
2023/02/27 04:35:19;;;;;;;2.00;0.93;;;-1.20;99.90;;;;;;4991786;28;20027;-77
2023/02/27 04:37:54;;;;;;;1.05;0.88;;;-1.20;99.90;;;;;;4978726;28;20058;-77
2023/02/27 04:41:00;;;;;;;6.05;0.70;;;-1.30;99.90;;;;;;4975967;28;20026;-77
2023/02/27 04:43:28;;;;;;;1.23;1.00;;;-1.30;99.90;;;;;;5004111;28;20027;-77
2023/02/27 04:45:58;;;;;;;0.82;0.52;;;-1.30;99.90;;;;;;4988313;28;20375;-77
2023/02/27 04:49:02;;;;;;;1.17;0.80;;;-1.30;99.90;;;;;;4988828;28;20131;-77
2023/02/27 04:51:37;;;;;;;0.43;0.43;;;-1.30;99.90;;;;;;4958757;28;20023;-77
2023/02/27 04:54:09;;;;;;;1.50;0.57;;;-1.40;99.90;;;;;;4982787;28;20121;-78
2023/02/27 04:56:40;;;;;;;0.40;0.30;;;-1.30;99.90;;;;;;4986909;28;20033;-77
2023/02/27 04:59:24;;;;;;;2.67;0.85;;;-1.30;99.90;;;;;;4982359;28;20060;-77
2023/02/27 05:02:07;;;;;;;4.28;1.33;;;-1.40;99.90;;;;;;4990335;28;20026;-77
2023/02/27 05:04:39;;;;;;;0.35;0.35;;;-1.40;99.90;;;;;;4978485;28;20018;-77
2023/02/27 05:07:09;;;;;;;0.70;0.70;;;-1.50;99.90;;;;;;4973924;28;20046;-77
2023/02/27 05:10:01;;;;;;;0.30;0.20;;;-1.50;99.90;;;;;;4991358;28;20080;-77
2023/02/27 05:12:45;;;;;;;11.15;0.55;;;-1.50;99.90;;;;;;4990542;28;20406;-77
2023/02/27 05:15:23;;;;;;;5.63;0.98;;;-1.50;99.90;;;;;;4979301;28;20030;-77
2023/02/27 05:18:04;;;;;;;0.35;0.35;;;-1.50;99.90;;;;;;4978688;28;20037;-77
2023/02/27 05:20:48;;;;;;;9.23;1.45;;;-1.60;99.90;;;;;;4985600;28;20490;-77
2023/02/27 05:23:43;;;;;;;0.55;0.55;;;-1.60;99.90;;;;;;4991146;28;20513;-77
2023/02/27 05:26:29;;;;;;;0.22;0.20;;;-1.60;99.90;;;;;;4985990;28;20065;-77
2023/02/27 05:29:32;;;;;;;0.55;0.45;;;-1.60;99.90;;;;;;4974556;28;20030;-77
2023/02/27 05:32:52;;;;;;;0.20;0.20;;;-1.60;99.90;;;;;;4982843;28;20038;-77
2023/02/27 05:35:41;;;;;;;2.38;0.80;;;-1.60;99.90;;;;;;4900905;29;20532;-77
2023/02/27 05:38:15;;;;;;;0.63;0.63;;;-1.70;99.90;;;;;;4997510;28;20037;-77
2023/02/27 05:40:48;;;;;;;3.05;1.10;;;-1.70;99.90;;;;;;4990048;28;20420;-78
2023/02/27 05:43:50;;;;;;;1.20;0.80;;;-1.70;99.90;;;;;;4976180;28;20037;-74
2023/02/27 05:46:24;;;;;;;1.35;0.70;;;-1.80;99.90;;;;;;4937549;28;20049;-75
2023/02/27 05:49:03;;;;;;;1.52;1.23;;;-1.80;99.90;;;;;;4990186;28;20045;-72
2023/02/27 05:51:34;;;;;;;2.53;1.05;;;-1.80;99.90;;;;;;4982287;28;20037;-72
2023/02/27 05:54:27;;;;;;;4.13;1.27;;;-1.70;99.90;;;;;;4977726;28;20056;-72
2023/02/27 05:56:58;;;;;;;0.35;0.22;;;-1.70;99.90;;;;;;4968519;28;20034;-73
2023/02/27 05:59:30;;;;;;;0.57;0.35;;;-1.70;99.90;;;;;;4977402;28;20057;-74
2023/02/27 06:01:56;;;;;;;0.50;0.50;;;-1.70;99.90;;;;;;4970512;28;20038;-74
2023/02/27 06:04:21;;;;;;;5.85;0.45;;;-1.70;99.90;;;;;;4990195;28;20134;-74
2023/02/27 06:06:47;;;;;;;0.47;0.47;;;-1.70;99.90;;;;;;4983814;28;20039;-73
2023/02/27 06:09:15;;;;;;;1.95;1.05;;;-1.80;99.90;;;;;;4976800;28;20398;-74
2023/02/27 06:11:41;;;;;;;3.65;1.20;;;-1.90;99.90;;;;;;4985002;28;20118;-74
2023/02/27 06:14:07;;;;;;;1.48;1.08;;;-1.90;99.90;;;;;;4980699;28;20170;-75
2023/02/27 06:16:36;;;;;;;1.42;1.15;;;-2.00;99.90;;;;;;4975387;28;20019;-74
2023/02/27 06:19:04;;;;;;;1.98;1.58;;;-2.00;99.90;;;;;;4972259;28;20124;-73
2023/02/27 06:21:31;;;;;;;0.22;0.22;;;-2.00;99.90;;;;;;4988524;28;20489;-73
2023/02/27 06:23:56;;;;;;;0.60;0.60;;;-2.00;99.90;;;;;;4989971;28;20062;-74
2023/02/27 06:26:22;;;;;;;0.40;0.40;;;-1.90;99.90;;;;;;4990527;28;20576;-73
2023/02/27 06:28:48;;;;;;;1.13;0.70;;;-2.10;99.90;;;;;;4985450;28;20112;-73
2023/02/27 06:31:14;;;;;;;3.88;1.27;;;-2.10;99.90;;;;;;4981163;28;20101;-73
2023/02/27 06:33:40;;;;;;;1.40;0.88;;;-2.10;99.90;;;;;;4989651;28;20042;-73
2023/02/27 06:36:06;;;;;;;1.52;0.98;;;-2.00;99.90;;;;;;4988434;28;20396;-74
2023/02/27 06:38:32;;;;;;;0.60;0.60;;;-2.00;99.90;;;;;;4986138;28;20026;-74
2023/02/27 06:40:58;;;;;;;1.08;0.73;;;-2.00;99.90;;;;;;4980085;28;20027;-74
2023/02/27 06:43:24;;;;;;;1.45;0.90;;;-2.00;99.90;;;;;;4970751;28;20023;-74
2023/02/27 06:45:53;;;;;;;0.85;0.65;;;-2.00;99.90;;;;;;4977165;28;20405;-74
2023/02/27 06:48:19;;;;;;;5.65;0.60;;;-2.00;99.90;;;;;;4979533;28;20037;-73
2023/02/27 06:50:44;;;;;;;4.30;0.82;;;-2.00;99.90;;;;;;4983999;28;20105;-74
2023/02/27 06:53:10;;;;;;;2.97;1.85;;;-2.00;99.90;;;;;;4988125;28;20049;-74
2023/02/27 06:55:36;;;;;;;3.13;0.60;;;-2.00;99.90;;;;;;4982708;28;20026;-70
2023/02/27 06:58:01;;;;;;;2.83;1.33;;;-2.00;99.90;;;;;;4987070;28;20133;-71
2023/02/27 07:00:28;;;;;;;1.85;0.75;;;-2.00;99.90;;;;;;4999428;28;20032;-70
2023/02/27 07:02:54;;;;;;;8.82;1.48;;;-2.00;99.90;;;;;;4977619;28;20125;-71
2023/02/27 07:05:19;;;;;;;1.08;0.38;;;-2.00;99.90;;;;;;4987522;28;20549;-72
2023/02/27 07:07:45;;;;;;;0.90;0.85;;;-1.90;99.90;;;;;;4985287;28;20037;-73
2023/02/27 07:10:12;;;;;;;1.60;0.80;;;-1.90;99.90;;;;;;4984076;28;20060;-73
2023/02/27 07:12:39;;;;;;;0.68;0.68;;;-1.80;99.90;;;;;;4989161;28;20113;-71
2023/02/27 07:15:07;;;;;;;0.60;0.38;;;-1.80;99.90;;;;;;5003421;28;20490;-70
2023/02/27 07:17:32;;;;;;;0.40;0.40;;;-1.80;99.90;;;;;;4974040;28;20085;-69
2023/02/27 07:19:58;;;;;;;0.38;0.38;;;-1.70;99.90;;;;;;4989667;28;20034;-70
2023/02/27 07:22:24;;;;;;;0.32;0.32;;;-1.60;99.90;;;;;;4989016;28;20105;-71
2023/02/27 07:24:49;;;;;;;1.17;0.68;;;-1.60;99.90;;;;;;4990209;28;20044;-70
2023/02/27 07:27:15;;;;;;;2.17;0.73;;;-1.60;99.90;;;;;;4972354;28;20073;-71
2023/02/27 07:29:41;;;;;;;1.67;1.27;;;-1.40;99.90;;;;;;4989513;28;20664;-71
2023/02/27 07:32:07;;;;;;;4.95;2.17;;;-1.40;99.90;;;;;;5002976;28;20089;-70
2023/02/27 07:34:33;;;;;;;1.77;0.88;;;-1.30;99.90;;;;;;4998230;28;20030;-70
2023/02/27 07:36:59;;;;;;;0.40;0.40;;;-1.30;99.90;;;;;;4989275;28;20544;-70
2023/02/27 07:39:25;;;;;;;0.80;0.52;;;-1.30;99.90;;;;;;4995079;28;20044;-75
2023/02/27 07:41:50;;;;;;;1.98;1.05;;;-1.20;99.90;;;;;;4996248;28;20026;-73
2023/02/27 07:44:16;;;;;;;5.82;0.68;;;-1.10;99.90;;;;;;4988527;28;20066;-70
2023/02/27 07:46:43;;;;;;;1.27;0.70;;;-0.90;99.90;;;;;;4991272;28;20124;-69
2023/02/27 07:49:09;;;;;;;0.88;0.88;;;-0.90;99.90;;;;;;4991963;28;20042;-70
2023/02/27 07:51:35;;;;;;;0.55;0.43;;;-0.90;99.90;;;;;;4989706;28;20541;-70
2023/02/27 07:54:01;;;;;;;5.38;0.60;;;-0.90;99.90;;;;;;4992411;28;20125;-70
2023/02/27 07:56:26;;;;;;;1.00;0.88;;;-0.80;99.90;;;;;;4993108;28;20027;-70
2023/02/27 07:58:52;;;;;;;0.55;0.52;;;-0.70;99.90;;;;;;4976317;28;20091;-70
2023/02/27 08:01:18;;;;;;;0.32;0.30;;;-0.60;99.90;;;;;;4991089;28;20444;-70
2023/02/27 08:03:44;;;;;;;0.88;0.60;;;-0.50;99.90;;;;;;4991921;28;20092;-69
2023/02/27 08:06:10;;;;;;;0.85;0.57;;;-0.50;99.90;;;;;;4998925;28;20034;-70
2023/02/27 08:08:35;;;;;;;1.02;0.63;;;-0.30;99.90;;;;;;4986790;28;20057;-70
2023/02/27 08:11:01;;;;;;;0.95;0.82;;;-0.20;99.90;;;;;;4977320;28;20069;-69
2023/02/27 08:13:27;;;;;;;3.03;0.60;;;0.00;99.90;;;;;;4989655;28;20045;-70
2023/02/27 08:15:53;;;;;;;0.52;0.52;;;0.20;99.90;;;;;;4989360;28;20057;-69
2023/02/27 08:18:19;;;;;;;0.93;0.88;;;0.30;99.90;;;;;;4990665;28;20437;-70
2023/02/27 08:20:45;;;;;;;0.35;0.35;;;0.40;99.90;;;;;;4993721;28;20038;-70
2023/02/27 08:23:11;;;;;;;2.95;1.00;;;0.60;99.90;;;;;;4997664;28;20458;-69
2023/02/27 08:25:37;;;;;;;0.40;0.32;;;0.80;99.90;;;;;;4985917;28;20125;-69
2023/02/27 08:28:03;;;;;;;0.93;0.60;;;0.90;99.90;;;;;;4990889;28;20045;-70
2023/02/27 08:30:29;;;;;;;2.20;2.03;;;1.00;99.90;;;;;;4984869;28;20402;-71
2023/02/27 08:32:54;;;;;;;1.35;0.68;;;1.00;99.90;;;;;;4977717;28;20074;-70
2023/02/27 08:35:22;;;;;;;1.60;0.47;;;1.20;99.90;;;;;;4987883;28;20470;-70
2023/02/27 08:37:48;;;;;;;0.77;0.38;;;1.30;99.90;;;;;;4960916;28;20026;-70
2023/02/27 08:40:15;;;;;;;9.93;0.98;;;1.40;99.90;;;;;;4984946;28;20034;-70
2023/02/27 08:42:41;;;;;;;6.72;0.65;;;1.50;99.90;;;;;;4989461;28;20035;-70
2023/02/27 08:45:09;;;;;;;0.43;0.40;;;1.60;99.90;;;;;;4991261;28;20113;-70
2023/02/27 08:47:36;;;;;;;0.30;0.30;;;1.60;99.90;;;;;;4982232;28;20371;-71
2023/02/27 08:50:03;;;;;;;1.98;0.40;;;1.70;99.90;;;;;;4992199;28;20038;-71
2023/02/27 08:52:28;;;;;;;0.32;0.32;;;1.80;99.50;;;;;;4980406;28;20046;-71
2023/02/27 08:54:54;;;;;;;0.40;0.30;;;1.90;99.50;;;;;;4992270;28;20367;-75
2023/02/27 08:57:20;;;;;;;1.25;0.32;;;1.90;99.20;;;;;;4991165;28;20030;-70
2023/02/27 08:59:46;;;;;;;1.02;0.43;;;2.00;99.20;;;;;;4992219;28;20521;-70
2023/02/27 09:02:12;;;;;;;0.65;0.57;;;2.10;98.60;;;;;;4990595;28;20049;-70
2023/02/27 09:04:37;;;;;;;0.88;0.38;;;2.00;98.70;;;;;;4991948;28;20026;-70
2023/02/27 09:07:03;;;;;;;0.30;0.30;;;2.10;98.70;;;;;;4990537;28;20407;-70
2023/02/27 09:09:29;;;;;;;8.35;1.02;;;2.20;98.60;;;;;;4991694;28;20429;-70
2023/02/27 09:11:54;;;;;;;0.95;0.40;;;2.30;98.40;;;;;;4990933;28;20044;-70
2023/02/27 09:14:21;;;;;;;8.95;2.28;;;2.50;98.00;;;;;;4991808;28;20030;-70
2023/02/27 09:16:46;;;;;;;0.80;0.32;;;2.60;97.60;;;;;;4990577;28;20030;-70
2023/02/27 09:19:15;;;;;;;2.03;0.57;;;2.70;97.40;;;;;;4981404;28;20030;-70
2023/02/27 09:21:41;;;;;;;0.40;0.40;;;2.50;97.30;;;;;;4991071;28;20026;-70
2023/02/27 09:24:08;;;;;;;0.55;0.28;;;2.60;97.50;;;;;;4991533;28;20081;-70
2023/02/27 09:26:33;;;;;;;24.48;1.55;;;2.60;97.50;;;;;;4991136;28;20026;-70
2023/02/27 09:28:59;;;;;;;0.30;0.30;;;2.70;97.70;;;;;;4981537;28;20042;-70
2023/02/27 09:31:25;;;;;;;0.52;0.47;;;2.90;97.00;;;;;;4990290;28;20046;-69
2023/02/27 09:33:51;;;;;;;2.80;0.30;;;2.90;96.70;;;;;;4990009;28;20043;-70
2023/02/27 09:36:17;;;;;;;2.60;0.40;;;3.10;96.70;;;;;;4978527;28;20038;-70
2023/02/27 09:38:43;;;;;;;9.30;1.00;;;3.20;96.50;;;;;;4983217;28;20034;-70
2023/02/27 09:41:38;;;;;;;10.50;0.60;;;3.20;96.60;;;;;;4991187;28;20029;-70
2023/02/27 09:44:12;;;;;;;1.15;0.70;;;3.30;96.30;;;;;;4990737;28;20073;-69
2023/02/27 09:46:37;;;;;;;0.90;0.32;;;3.50;95.80;;;;;;4975736;28;20034;-69
2023/02/27 09:49:04;;;;;;;1.05;0.40;;;3.50;95.40;;;;;;4974893;28;20049;-69
2023/02/27 09:51:30;;;;;;;2.20;0.25;;;3.40;95.40;;;;;;4986990;28;20030;-69
2023/02/27 09:54:01;;;;;;;6.10;0.73;;;3.60;95.20;;;;;;4989691;28;20049;-68
2023/02/27 09:56:40;;;;;;;0.70;0.30;;;3.70;95.20;;;;;;4989965;28;20129;-68
2023/02/27 09:59:56;;;;;;;34.72;2.30;;;3.80;94.90;;;;;;4988902;28;20049;-69
2023/02/27 10:02:28;;;;;;;0.30;0.30;;;3.80;94.50;;;;;;4973163;28;20050;-68
2023/02/27 10:05:41;;;;;;;0.10;0.10;;;3.90;94.10;;;;;;4990385;28;20494;-68
2023/02/27 10:08:20;;;;;;;0.88;0.85;;;3.90;94.20;;;;;;4967086;28;20104;-68
2023/02/27 10:11:12;;;;;;;0.75;0.40;;;4.10;94.20;;;;;;4977788;28;20053;-69
2023/02/27 10:14:20;;;;;;;;;;;4.00;93.90;;;;;;4989694;28;20044;-69
2023/02/27 10:16:48;;;;;;;7.32;0.55;;;4.20;93.50;;;;;;4976118;28;19910;-69
2023/02/27 10:19:20;;;;;;;0.50;0.50;;;4.40;93.60;;;;;;4990671;28;20037;-69
2023/02/27 10:21:50;;;;;;;7.95;0.73;;;4.50;93.10;;;;;;4980583;28;20182;-69
2023/02/27 10:24:26;;;;;;;5.10;0.52;;;4.60;93.50;;;;;;4981218;28;20493;-70
2023/02/27 10:26:55;;;;;;;2.60;0.65;;;4.60;93.30;;;;;;4982435;28;20034;-70
2023/02/27 10:29:40;;;;;;;1.38;1.00;;;4.80;93.40;;;;;;4981550;28;20066;-70
2023/02/27 10:32:25;;;;;;;0.93;0.47;;;5.00;93.60;;;;;;4971574;28;20034;-70
2023/02/27 10:35:35;;;;;;;1.23;0.50;;;5.40;92.40;;;;;;4978780;28;20529;-68
2023/02/27 10:38:18;;;;;;;1.95;0.90;;;5.50;92.20;;;;;;4974643;28;20040;-72
2023/02/27 10:40:45;;;;;;;3.28;0.35;;;5.50;92.40;;;;;;4982552;28;20038;-73
2023/02/27 10:43:17;;;;;;;2.55;0.70;;;5.50;92.10;;;;;;4983058;28;20041;-70
2023/02/27 10:45:44;;;;;;;0.75;0.35;;;5.60;93.10;;;;;;4971937;28;20035;-73
2023/02/27 10:48:11;;;;;;;2.08;0.90;;;5.90;91.80;;;;;;4973416;28;20101;-72
2023/02/27 10:50:42;;;;;;;0.90;0.50;;;6.20;91.00;;;;;;4983994;28;20041;-73
2023/02/27 10:53:25;;;;;;;0.90;0.50;;;5.80;90.70;;;;;;4986086;28;20037;-68
2023/02/27 10:56:09;;;;;;;0.43;0.40;;;5.70;91.20;;;;;;4985703;28;20026;-78
2023/02/27 10:58:36;;;;;;;0.15;0.15;;;6.30;90.90;;;;;;4983913;28;20029;-73
2023/02/27 11:01:06;;;;;;;1.88;0.47;;;6.80;89.80;;;;;;4987543;28;20034;-74
2023/02/27 11:03:37;;;;;;;1.35;0.68;;;6.20;88.80;;;;;;4984018;28;20034;-74
2023/02/27 11:06:24;;;;;;;0.93;0.85;;;6.60;89.40;;;;;;4986939;28;20089;-74
2023/02/27 11:09:19;;;;;;;0.43;0.38;;;6.70;88.60;;;;;;4985254;28;20518;-72
2023/02/27 11:11:45;;;;;;;1.60;0.88;;;7.00;88.80;;;;;;4974957;28;20042;-72
2023/02/27 11:14:29;;;;;;;0.90;0.47;;;7.80;86.50;;;;;;4993678;28;20608;-73
2023/02/27 11:16:59;;;;;;;0.40;0.35;;;7.70;84.80;;;;;;4990103;28;20026;-74
2023/02/27 11:19:37;;;;;;;2.25;0.90;;;8.30;85.00;;;;;;4984763;28;20027;-70
2023/02/27 11:22:17;;;;;;;1.48;0.50;;;9.50;81.90;;;;;;5000522;28;20029;-71
2023/02/27 11:24:43;;;;;;;0.82;0.45;;;10.70;76.50;;;;;;4984788;28;20023;-72
2023/02/27 11:27:29;;;;;;;1.65;0.50;;;9.70;76.30;;;;;;4987468;28;20030;-71
2023/02/27 11:30:30;;;;;;;2.35;0.52;;;10.60;74.70;;;;;;4992890;28;20351;-77
2023/02/27 11:33:00;;;;;;;0.77;0.40;;;11.20;71.00;;;;;;4977800;28;20035;-77
2023/02/27 11:35:33;;;;;;;2.08;0.40;;;11.90;70.10;;;;;;4989770;28;20026;-74
2023/02/27 11:38:06;;;;;;;2.72;0.43;;;11.10;67.70;;;;;;4966281;28;20048;-76
2023/02/27 11:40:54;;;;;;;8.27;1.40;;;12.30;68.50;;;;;;4978361;28;20462;-77
2023/02/27 11:43:31;;;;;;;2.20;0.70;;;11.80;67.70;;;;;;4971315;28;20513;-76
2023/02/27 11:46:04;;;;;;;0.63;0.40;;;11.90;64.00;;;;;;4971866;28;20047;-74
2023/02/27 11:48:44;;;;;;;0.80;0.50;;;10.90;66.60;;;;;;4978649;28;20684;-76
2023/02/27 11:51:10;;;;;;;1.88;0.52;;;12.70;65.20;;;;;;5001292;28;20034;-74
2023/02/27 11:54:08;;;;;;;4.38;1.38;;;14.80;60.30;;;;;;4990021;28;20033;-75
2023/02/27 11:57:03;;;;;;;0.57;0.30;;;15.00;56.60;;;;;;4990505;28;20034;-73
2023/02/27 11:59:45;;;;;;;0.40;0.25;;;14.30;56.00;;;;;;4984162;28;20081;-76
2023/02/27 12:02:45;;;;;;;0.30;0.30;;;14.20;54.30;;;;;;4989640;28;20097;-76
2023/02/27 12:05:29;;;;;;;1.15;0.70;;;10.40;61.70;;;;;;4986967;28;20514;-77
2023/02/27 12:08:22;;;;;;;1.83;0.70;;;12.20;60.80;;;;;;4993458;28;20117;-76
2023/02/27 12:10:55;;;;;;;3.90;0.73;;;13.90;58.30;;;;;;4975304;28;20037;-77
2023/02/27 12:13:26;;;;;;;2.10;0.60;;;12.80;57.70;;;;;;4976311;28;20057;-75
2023/02/27 12:16:23;;;;;;;;;;;12.80;58.00;;;;;;4985855;28;20113;-75
2023/02/27 12:19:25;;;;;;;1.30;0.50;;;9.90;63.50;;;;;;4990461;28;20289;-75
2023/02/27 12:22:03;;;;;;;1.48;0.70;;;10.30;62.90;;;;;;4988114;28;20044;-75
2023/02/27 12:24:39;;;;;;;0.65;0.50;;;10.90;60.40;;;;;;4986209;28;20026;-74
2023/02/27 12:27:47;;;;;;;1.33;0.90;;;10.00;64.20;;;;;;4973056;28;20022;-75
2023/02/27 12:30:45;;;;;;;27.95;1.73;;;11.60;61.10;;;;;;4965686;28;20053;-75
2023/02/27 12:33:37;;;;;;;3.33;0.93;;;13.70;59.90;;;;;;4982386;28;20038;-76
2023/02/27 12:36:07;;;;;;;1.40;0.40;;;13.40;59.90;;;;;;4979365;28;20022;-76
2023/02/27 12:38:33;;;;;;;0.70;0.50;;;11.40;58.80;;;;;;4979781;28;20533;-74
2023/02/27 12:41:55;;;;;;;0.98;0.50;;;12.80;58.10;;;;;;4990594;28;20105;-73
2023/02/27 12:44:36;;;;;;;0.75;0.52;;;10.90;60.20;;;;;;4982235;28;20126;-75
2023/02/27 12:47:05;;;;;;;1.35;1.00;;;12.50;58.20;;;;;;4990198;28;20027;-75
2023/02/27 12:49:54;;;;;;;1.25;0.52;;;12.60;55.70;;;;;;4991867;28;20058;-74
2023/02/27 12:52:39;;;;;;;0.98;0.50;;;12.30;58.30;;;;;;4993118;28;20029;-74
2023/02/27 12:55:22;;;;;;;2.95;0.43;;;11.70;58.70;;;;;;4991955;28;20061;-75
2023/02/27 12:58:06;;;;;;;1.77;0.47;;;9.90;61.70;;;;;;4981780;28;20718;-77
2023/02/27 13:01:06;;;;;;;1.35;0.75;;;10.60;61.30;;;;;;4986068;28;20510;-77
2023/02/27 13:03:53;;;;;;;0.55;0.50;;;9.30;62.10;;;;;;4991103;28;20041;-78
2023/02/27 13:06:33;;;;;;;1.33;0.40;;;9.90;64.00;;;;;;4955749;28;20038;-77
2023/02/27 13:09:24;;;;;;;3.00;0.65;;;10.50;62.90;;;;;;4989839;28;20046;-77
2023/02/27 13:12:14;;;;;;;0.95;0.50;;;10.50;62.20;;;;;;4975119;28;20470;-77
2023/02/27 13:14:55;;;;;;;3.17;0.70;;;10.60;62.90;;;;;;4986716;28;20057;-77
2023/02/27 13:17:45;;;;;;;0.70;0.40;;;12.20;58.90;;;;;;4987059;28;20382;-77
2023/02/27 13:20:39;;;;;;;3.80;0.35;;;9.80;60.00;;;;;;4987688;28;20065;-77
2023/02/27 13:23:24;;;;;;;0.80;0.60;;;9.80;63.40;;;;;;4980470;28;20042;-76
2023/02/27 13:25:54;;;;;;;0.77;0.57;;;9.20;62.50;;;;;;4990297;28;20026;-76
2023/02/27 13:28:27;;;;;;;2.17;0.55;;;10.40;62.40;;;;;;4978244;28;20034;-78
2023/02/27 13:31:17;;;;;;;0.93;0.75;;;9.50;63.70;;;;;;4996923;28;20041;-77
2023/02/27 13:33:58;;;;;;;1.58;0.40;;;10.50;60.80;;;;;;4990195;28;20045;-77